Time;durP1;ratioP1;P1;durP2;ratioP2;P2;SDS_P1;SDS_P2;PMS_P1;PMS_P2;Temp;Humidity;BMP_temperature;BMP_pressure;BME280_temperature;BME280_humidity;BME280_pressure;Samples;Min_cycle;Max_cycle;Signal;HPM_P1;HPM_P2
2022/04/30 00:02:20;;;;;;;10.55;6.28;;;16.10;38.40;;;;;;5095726;28;20028;-74
2022/04/30 00:04:47;;;;;;;8.38;5.28;;;16.10;38.20;;;;;;5095632;28;20512;-74
2022/04/30 00:07:20;;;;;;;9.77;5.72;;;16.10;38.10;;;;;;5095553;28;20077;-74
2022/04/30 00:09:47;;;;;;;9.75;5.05;;;16.10;37.90;;;;;;5095458;28;20020;-73
2022/04/30 00:12:13;;;;;;;7.55;5.28;;;16.10;38.00;;;;;;5095517;28;20512;-74
2022/04/30 00:14:40;;;;;;;7.60;5.75;;;16.10;37.90;;;;;;5095484;28;20031;-73
2022/04/30 00:17:06;;;;;;;8.40;5.38;;;16.10;37.70;;;;;;5095390;28;20358;-75
2022/04/30 00:19:33;;;;;;;8.13;5.68;;;16.10;37.70;;;;;;5094145;28;20381;-74
2022/04/30 00:21:58;;;;;;;10.18;5.80;;;16.20;37.70;;;;;;5075057;28;20025;-74
2022/04/30 00:24:26;;;;;;;8.85;5.78;;;16.20;37.70;;;;;;5085822;28;20094;-75
2022/04/30 00:26:52;;;;;;;7.13;5.00;;;16.20;37.60;;;;;;5093175;28;20020;-74
2022/04/30 00:29:18;;;;;;;11.73;6.00;;;16.20;37.60;;;;;;5095141;28;20017;-74
2022/04/30 00:31:44;;;;;;;7.82;5.35;;;16.10;37.80;;;;;;5095103;28;20095;-74
2022/04/30 00:34:10;;;;;;;10.57;5.57;;;16.10;37.30;;;;;;5095091;28;20512;-75
2022/04/30 00:36:37;;;;;;;7.97;4.93;;;16.10;37.50;;;;;;5095000;28;20052;-75
2022/04/30 00:39:04;;;;;;;9.30;5.07;;;16.20;37.60;;;;;;5094932;28;20054;-74
2022/04/30 00:41:32;;;;;;;8.60;4.90;;;16.20;37.70;;;;;;5094898;28;20553;-74
2022/04/30 00:43:59;;;;;;;9.15;5.07;;;16.10;37.70;;;;;;5093534;28;20032;-75
2022/04/30 00:46:25;;;;;;;13.20;4.93;;;16.10;37.90;;;;;;5094665;28;20024;-75
2022/04/30 00:48:53;;;;;;;6.65;4.18;;;16.10;38.00;;;;;;5094699;28;20024;-74
2022/04/30 00:51:20;;;;;;;6.65;4.85;;;16.10;38.10;;;;;;5094647;28;20024;-75
2022/04/30 00:53:48;;;;;;;13.55;4.32;;;16.00;38.30;;;;;;5094622;28;20020;-74
2022/04/30 00:56:17;;;;;;;5.45;4.32;;;16.00;38.50;;;;;;5093336;28;20058;-75
2022/04/30 00:58:47;;;;;;;5.13;3.90;;;16.00;38.80;;;;;;5092862;28;20028;-73
2022/04/30 01:01:14;;;;;;;10.23;4.57;;;15.90;38.80;;;;;;5094363;28;20040;-75
2022/04/30 01:03:40;;;;;;;11.18;4.82;;;15.90;39.10;;;;;;5094291;28;20024;-74
2022/04/30 01:06:08;;;;;;;9.45;4.75;;;15.80;39.10;;;;;;5094076;28;20023;-75
2022/04/30 01:08:36;;;;;;;6.72;4.00;;;15.80;39.20;;;;;;5094228;28;20077;-74
2022/04/30 01:11:04;;;;;;;5.78;3.55;;;15.70;39.60;;;;;;5094199;28;20081;-73
2022/04/30 01:13:34;;;;;;;5.70;4.18;;;15.60;39.70;;;;;;5094188;28;20024;-75
2022/04/30 01:16:03;;;;;;;6.72;4.05;;;15.60;39.90;;;;;;5094074;28;20538;-74
2022/04/30 01:18:29;;;;;;;6.05;3.80;;;15.50;39.90;;;;;;5089426;28;20273;-74
2022/04/30 01:20:59;;;;;;;5.40;3.95;;;15.40;40.20;;;;;;5072357;28;20025;-75
2022/04/30 01:23:26;;;;;;;7.60;3.72;;;15.30;40.50;;;;;;5073642;28;20021;-74
2022/04/30 01:25:53;;;;;;;4.93;3.28;;;15.20;40.50;;;;;;5073619;28;20044;-74
2022/04/30 01:28:19;;;;;;;5.68;3.88;;;15.10;40.60;;;;;;5072196;28;20032;-75
2022/04/30 01:30:45;;;;;;;5.50;3.83;;;15.00;40.80;;;;;;5073546;28;20028;-73
2022/04/30 01:37:22;;;;;;;6.07;3.67;;;14.80;41.20;;;;;;5073605;28;20044;-75
2022/04/30 01:38:50;;;;;;;;;;;14.70;41.30;;;;;;5073704;28;20029;-74
2022/04/30 01:41:16;;;;;;;5.95;4.05;;;14.70;40.70;;;;;;5073403;28;20316;-74
2022/04/30 01:43:43;;;;;;;7.68;4.07;;;14.60;41.30;;;;;;5073279;28;20086;-74
2022/04/30 01:46:09;;;;;;;7.70;4.45;;;14.50;41.40;;;;;;5073142;28;20110;-75
2022/04/30 01:48:36;;;;;;;6.68;4.40;;;14.50;41.90;;;;;;5073532;28;20099;-73
2022/04/30 01:51:01;;;;;;;6.97;3.53;;;14.40;41.90;;;;;;5073255;28;20025;-74
2022/04/30 01:53:27;;;;;;;5.65;4.03;;;14.40;41.90;;;;;;5071860;28;20028;-75
2022/04/30 01:55:54;;;;;;;7.93;4.65;;;14.40;42.20;;;;;;5071935;28;20111;-74
2022/04/30 01:58:20;;;;;;;7.03;4.25;;;14.30;42.30;;;;;;5073197;28;20063;-73
2022/04/30 02:00:45;;;;;;;8.52;4.10;;;14.30;42.20;;;;;;5072898;28;20510;-73
2022/04/30 02:03:14;;;;;;;8.70;3.95;;;14.20;42.50;;;;;;5073396;28;20050;-73
2022/04/30 02:05:41;;;;;;;6.82;4.13;;;14.20;42.70;;;;;;5073216;28;20028;-74
2022/04/30 02:08:10;;;;;;;4.95;4.13;;;14.20;42.70;;;;;;5072383;28;20036;-73
2022/04/30 02:10:37;;;;;;;5.38;3.55;;;14.20;42.70;;;;;;5072575;28;20028;-73
2022/04/30 02:13:06;;;;;;;4.80;3.67;;;14.10;42.80;;;;;;5072747;28;20021;-75
2022/04/30 02:15:33;;;;;;;4.85;3.53;;;14.10;43.00;;;;;;5072903;28;20019;-74
2022/04/30 02:18:00;;;;;;;5.95;4.07;;;14.10;43.10;;;;;;5072806;28;20026;-74
2022/04/30 02:20:33;;;;;;;6.25;3.90;;;14.00;43.10;;;;;;5076466;28;20027;-74
2022/04/30 02:23:04;;;;;;;6.45;3.92;;;14.00;43.20;;;;;;5093120;28;20028;-75
2022/04/30 02:25:31;;;;;;;9.07;4.30;;;13.90;43.60;;;;;;5093040;28;20020;-75
2022/04/30 02:28:01;;;;;;;5.97;3.38;;;13.90;43.50;;;;;;5092889;28;20021;-75
2022/04/30 02:30:29;;;;;;;5.18;3.40;;;13.80;43.50;;;;;;5093032;28;20024;-73
2022/04/30 02:32:57;;;;;;;6.75;3.38;;;13.80;43.40;;;;;;5092959;28;20027;-74
2022/04/30 02:35:28;;;;;;;6.65;4.50;;;13.70;43.50;;;;;;5092909;28;20485;-75
2022/04/30 02:37:57;;;;;;;4.50;3.53;;;13.70;43.60;;;;;;5091644;28;20032;-73
2022/04/30 02:40:24;;;;;;;4.80;3.50;;;13.60;43.70;;;;;;5092936;28;20055;-73
2022/04/30 02:42:51;;;;;;;4.32;3.00;;;13.50;43.80;;;;;;5092902;28;20389;-75
2022/04/30 02:45:18;;;;;;;8.43;3.78;;;13.50;43.70;;;;;;5091551;28;20436;-73
2022/04/30 02:47:46;;;;;;;5.70;3.38;;;13.50;44.10;;;;;;5092792;28;20102;-73
2022/04/30 02:50:13;;;;;;;5.03;3.60;;;13.40;44.30;;;;;;5074968;28;20025;-74
2022/04/30 02:52:43;;;;;;;7.05;3.63;;;13.30;44.60;;;;;;5071259;28;20027;-73
2022/04/30 02:55:11;;;;;;;6.68;4.22;;;13.30;44.80;;;;;;5071335;28;20125;-73
2022/04/30 03:00:42;;;;;;;5.57;3.38;;;13.20;45.20;;;;;;5072354;28;20517;-73
2022/04/30 03:03:13;;;;;;;4.22;3.22;;;13.10;45.40;;;;;;5072424;28;20111;-74
2022/04/30 03:05:41;;;;;;;4.38;3.13;;;13.10;45.80;;;;;;5072641;28;20028;-75
2022/04/30 03:08:12;;;;;;;8.00;3.83;;;13.00;45.50;;;;;;5072658;28;20066;-76
2022/04/30 03:10:45;;;;;;;3.10;2.65;;;13.00;45.70;;;;;;5071239;28;20021;-74
2022/04/30 03:13:13;;;;;;;5.00;3.15;;;12.90;45.60;;;;;;5072411;28;20078;-73
2022/04/30 03:15:43;;;;;;;4.80;3.30;;;12.90;45.50;;;;;;5072359;28;20025;-75
2022/04/30 03:23:40;;;;;;;6.93;3.30;;;12.80;46.10;;;;;;5074987;28;20448;-74
2022/04/30 03:26:08;;;;;;;6.22;3.90;;;12.70;46.10;;;;;;5075978;28;20024;-73
2022/04/30 03:28:35;;;;;;;4.13;3.10;;;12.70;46.30;;;;;;5075925;28;20021;-74
2022/04/30 03:31:01;;;;;;;4.13;3.25;;;12.70;46.10;;;;;;5075894;28;20051;-74
2022/04/30 03:33:27;;;;;;;6.72;3.47;;;12.60;46.00;;;;;;5075804;28;20067;-73
2022/04/30 03:35:54;;;;;;;5.30;2.90;;;12.60;46.20;;;;;;5075783;28;20032;-73
2022/04/30 03:38:20;;;;;;;6.40;3.60;;;12.60;46.10;;;;;;5075760;28;20046;-73
2022/04/30 03:40:46;;;;;;;4.95;3.10;;;12.60;46.20;;;;;;5075699;28;20499;-74
2022/04/30 03:43:12;;;;;;;4.95;3.30;;;12.60;46.30;;;;;;5082918;28;20016;-74
2022/04/30 03:45:38;;;;;;;4.88;3.20;;;12.50;46.20;;;;;;5082681;28;20078;-74
2022/04/30 03:48:05;;;;;;;4.57;3.10;;;12.50;46.20;;;;;;5074386;28;20021;-74
2022/04/30 03:50:30;;;;;;;5.50;3.08;;;12.50;46.40;;;;;;5092496;28;20028;-75
2022/04/30 03:52:56;;;;;;;4.68;3.35;;;12.50;46.40;;;;;;5084251;28;20016;-73
2022/04/30 03:55:22;;;;;;;7.60;3.25;;;12.50;46.60;;;;;;5095728;28;20032;-75
2022/04/30 03:57:48;;;;;;;5.25;3.30;;;12.50;46.60;;;;;;5079014;28;20050;-73
2022/04/30 04:00:15;;;;;;;5.40;3.45;;;12.40;46.80;;;;;;5077700;28;20067;-74
2022/04/30 04:02:42;;;;;;;6.47;3.15;;;12.40;46.90;;;;;;5095241;28;20024;-74
2022/04/30 04:05:12;;;;;;;5.47;3.20;;;12.40;47.10;;;;;;5080207;28;20489;-74
2022/04/30 04:07:42;;;;;;;8.15;4.00;;;12.40;47.40;;;;;;5094751;28;20020;-74
2022/04/30 04:10:12;;;;;;;4.82;3.65;;;12.40;47.70;;;;;;5081607;28;20028;-74
2022/04/30 04:12:41;;;;;;;7.07;3.78;;;12.40;47.90;;;;;;5090221;28;20018;-75
2022/04/30 04:17:54;;;;;;;5.78;3.55;;;12.40;48.50;;;;;;5085576;28;20160;-73
2022/04/30 04:20:26;;;;;;;5.85;3.63;;;12.40;48.50;;;;;;5080662;28;20036;-74
2022/04/30 04:22:53;;;;;;;5.15;3.65;;;12.40;48.30;;;;;;5074826;28;20452;-73
2022/04/30 04:28:03;;;;;;;9.45;6.30;;;12.40;48.10;;;;;;5079377;28;20040;-74
2022/04/30 04:30:31;;;;;;;8.13;4.68;;;12.40;48.20;;;;;;5084787;28;20032;-75
2022/04/30 04:32:58;;;;;;;7.43;4.47;;;12.30;48.30;;;;;;5077190;28;20735;-73
2022/04/30 04:35:24;;;;;;;7.22;4.40;;;12.30;49.40;;;;;;5072800;28;20029;-74
2022/04/30 04:37:51;;;;;;;6.65;3.88;;;12.30;48.80;;;;;;5074638;28;20029;-73
2022/04/30 04:40:18;;;;;;;6.28;4.38;;;12.30;48.70;;;;;;5073392;28;20025;-74
2022/04/30 04:42:47;;;;;;;8.75;3.88;;;12.30;48.90;;;;;;5074629;28;20086;-73
2022/04/30 04:45:14;;;;;;;7.43;4.93;;;12.30;49.00;;;;;;5074551;28;20028;-74
2022/04/30 04:47:45;;;;;;;5.60;3.78;;;12.30;49.50;;;;;;5073210;28;20394;-75
2022/04/30 04:50:13;;;;;;;7.28;4.10;;;12.30;49.40;;;;;;5075148;28;20063;-74
2022/04/30 04:52:43;;;;;;;5.25;3.67;;;12.30;49.40;;;;;;5074406;28;20027;-74
2022/04/30 04:55:10;;;;;;;6.57;4.43;;;12.30;49.40;;;;;;5074475;28;20019;-74
2022/04/30 04:57:37;;;;;;;9.15;4.22;;;12.30;49.50;;;;;;5080015;28;20111;-74
2022/04/30 05:00:04;;;;;;;6.90;4.20;;;12.30;49.70;;;;;;5094380;28;20044;-73
2022/04/30 05:02:30;;;;;;;9.18;4.88;;;12.30;49.70;;;;;;5094419;28;20058;-73
2022/04/30 05:04:56;;;;;;;7.90;4.50;;;12.40;50.00;;;;;;5094412;28;20416;-72
2022/04/30 05:07:22;;;;;;;5.95;4.32;;;12.40;50.30;;;;;;5092995;28;20020;-74
2022/04/30 05:09:48;;;;;;;10.95;5.25;;;12.40;50.30;;;;;;5094383;28;20045;-73
2022/04/30 05:12:13;;;;;;;8.02;5.57;;;12.40;50.30;;;;;;5094351;28;20061;-74
2022/04/30 05:14:39;;;;;;;12.77;5.50;;;12.40;50.10;;;;;;5074850;28;20151;-75
2022/04/30 05:17:07;;;;;;;7.38;4.57;;;12.50;50.20;;;;;;5072696;28;20095;-73
2022/04/30 05:19:33;;;;;;;6.25;4.85;;;12.50;50.00;;;;;;5072887;28;20107;-74
2022/04/30 05:21:59;;;;;;;10.18;4.78;;;12.50;50.10;;;;;;5073887;28;20425;-74
2022/04/30 05:24:25;;;;;;;7.97;4.53;;;12.50;50.00;;;;;;5073831;28;20442;-74
2022/04/30 05:26:51;;;;;;;8.50;5.82;;;12.60;50.10;;;;;;5073668;28;20056;-75
2022/04/30 05:29:17;;;;;;;8.55;5.03;;;12.60;50.20;;;;;;5073729;28;20020;-73
2022/04/30 05:31:43;;;;;;;24.58;5.72;;;12.70;50.40;;;;;;5073687;28;20020;-74
2022/04/30 05:34:10;;;;;;;6.43;4.63;;;12.70;50.40;;;;;;5073626;28;20025;-74
2022/04/30 05:36:36;;;;;;;8.07;5.35;;;12.80;50.40;;;;;;5073640;28;20024;-73
2022/04/30 05:39:03;;;;;;;11.48;6.72;;;12.90;50.40;;;;;;5073520;28;20031;-75
2022/04/30 05:41:29;;;;;;;13.45;7.45;;;13.00;50.60;;;;;;5073520;28;20028;-74
2022/04/30 05:43:55;;;;;;;11.75;6.57;;;13.00;50.40;;;;;;5073447;28;20482;-72
2022/04/30 05:46:21;;;;;;;15.70;7.28;;;13.20;50.40;;;;;;5073196;28;20517;-73
2022/04/30 05:48:47;;;;;;;13.43;7.38;;;13.20;50.10;;;;;;5073653;28;20090;-74
2022/04/30 05:51:13;;;;;;;16.17;7.30;;;13.40;50.20;;;;;;5073333;28;20031;-74
2022/04/30 05:53:39;;;;;;;10.30;6.47;;;13.40;50.10;;;;;;5073284;28;20025;-74
2022/04/30 05:56:05;;;;;;;13.98;7.18;;;13.50;49.90;;;;;;5081164;28;20026;-74
2022/04/30 05:58:31;;;;;;;13.30;6.90;;;13.60;49.90;;;;;;5093521;28;20028;-74
2022/04/30 06:00:57;;;;;;;16.27;6.60;;;13.60;49.80;;;;;;5093264;28;20052;-74
2022/04/30 06:03:23;;;;;;;12.57;7.00;;;13.70;49.70;;;;;;5093383;28;20031;-74
2022/04/30 06:05:48;;;;;;;11.25;7.30;;;13.80;49.80;;;;;;5093454;28;20080;-74
2022/04/30 06:08:14;;;;;;;14.95;6.78;;;13.90;49.60;;;;;;5093179;28;20103;-75
2022/04/30 06:10:40;;;;;;;13.60;7.75;;;13.90;49.40;;;;;;5093312;28;20020;-72
2022/04/30 06:13:06;;;;;;;13.18;6.75;;;14.00;49.30;;;;;;5076484;28;20091;-74
2022/04/30 06:15:32;;;;;;;17.45;7.70;;;14.10;49.20;;;;;;5072988;28;20025;-74
2022/04/30 06:17:57;;;;;;;14.65;7.75;;;14.20;49.10;;;;;;5073031;28;20020;-74
2022/04/30 06:20:23;;;;;;;15.50;7.68;;;14.30;49.00;;;;;;5072001;28;20036;-74
2022/04/30 06:22:49;;;;;;;14.30;7.97;;;14.40;48.90;;;;;;5071689;28;20033;-74
2022/04/30 06:25:15;;;;;;;16.17;8.43;;;14.50;48.70;;;;;;5072971;28;20033;-74
2022/04/30 06:27:41;;;;;;;15.13;7.20;;;14.60;48.50;;;;;;5071561;28;20025;-73
2022/04/30 06:30:07;;;;;;;16.67;8.52;;;14.70;48.20;;;;;;5072895;28;20016;-73
2022/04/30 06:32:34;;;;;;;18.15;7.85;;;14.90;48.20;;;;;;5072859;28;20021;-74
2022/04/30 06:35:01;;;;;;;16.90;8.52;;;15.00;47.60;;;;;;5072814;28;20073;-74
2022/04/30 06:37:26;;;;;;;15.27;8.05;;;15.10;47.30;;;;;;5071670;28;20029;-74
2022/04/30 06:39:52;;;;;;;13.65;7.32;;;15.30;47.30;;;;;;5073137;28;20466;-74
2022/04/30 06:42:18;;;;;;;17.38;7.78;;;15.40;47.20;;;;;;5073602;28;20025;-73
2022/04/30 06:44:44;;;;;;;17.80;9.35;;;15.50;47.00;;;;;;5072801;28;20032;-73
2022/04/30 06:47:10;;;;;;;22.30;9.75;;;15.60;46.70;;;;;;5072717;28;20028;-73
2022/04/30 06:49:36;;;;;;;31.80;12.02;;;15.80;46.30;;;;;;5072931;28;20082;-74
2022/04/30 06:52:02;;;;;;;26.90;11.15;;;15.90;45.80;;;;;;5088780;28;20028;-74
2022/04/30 06:57:14;;;;;;;33.88;12.13;;;16.10;45.40;;;;;;5093498;28;20039;-73
2022/04/30 06:59:41;;;;;;;22.17;10.88;;;16.20;45.60;;;;;;5096679;28;20493;-74
2022/04/30 07:02:27;;;;;;;19.55;9.95;;;16.40;44.90;;;;;;5095584;28;20031;-74
2022/04/30 07:04:53;;;;;;;21.88;11.25;;;16.50;44.70;;;;;;5096845;28;20504;-73
2022/04/30 07:07:20;;;;;;;20.90;10.02;;;16.60;44.30;;;;;;5096673;28;20031;-74
2022/04/30 07:09:46;;;;;;;19.65;10.45;;;16.70;43.90;;;;;;5096246;28;20061;-74
2022/04/30 07:12:14;;;;;;;19.05;9.70;;;16.80;43.90;;;;;;5076435;28;20012;-73
2022/04/30 07:14:44;;;;;;;19.67;9.65;;;16.90;43.10;;;;;;5076324;28;20029;-75
2022/04/30 07:17:12;;;;;;;12.55;7.50;;;17.00;42.90;;;;;;5075038;28;20409;-74
2022/04/30 07:19:38;;;;;;;21.67;9.57;;;17.10;42.60;;;;;;5088511;28;20032;-73
2022/04/30 07:22:04;;;;;;;17.85;8.98;;;17.20;42.10;;;;;;5096705;28;20020;-75
2022/04/30 07:24:33;;;;;;;17.25;9.13;;;17.30;42.10;;;;;;5096390;28;20358;-75
2022/04/30 07:26:59;;;;;;;20.75;9.90;;;17.40;42.30;;;;;;5096274;28;20117;-73
2022/04/30 07:29:25;;;;;;;17.35;9.60;;;17.50;41.90;;;;;;5096355;28;20042;-74
2022/04/30 07:31:51;;;;;;;13.00;8.00;;;17.60;42.10;;;;;;5096088;28;20024;-74
2022/04/30 07:34:17;;;;;;;16.67;9.27;;;17.70;42.10;;;;;;5095973;28;20069;-73
2022/04/30 07:36:43;;;;;;;14.55;8.23;;;17.80;41.10;;;;;;5096225;28;20028;-74
2022/04/30 07:39:09;;;;;;;14.98;8.00;;;17.90;41.40;;;;;;5094831;28;20035;-74
2022/04/30 07:41:35;;;;;;;13.00;6.97;;;18.00;41.20;;;;;;5094716;28;20027;-73
2022/04/30 07:44:01;;;;;;;15.35;7.25;;;18.10;41.00;;;;;;5096018;28;20027;-73
2022/04/30 07:46:27;;;;;;;12.65;7.00;;;18.20;41.00;;;;;;5094492;28;20464;-73
2022/04/30 07:48:53;;;;;;;10.90;6.57;;;18.30;40.70;;;;;;5094896;28;20091;-74
2022/04/30 07:51:33;;;;;;;13.55;6.72;;;18.50;39.90;;;;;;5095898;28;20024;-75
2022/04/30 07:54:02;;;;;;;10.93;6.65;;;18.60;39.80;;;;;;5095734;28;20024;-74
2022/04/30 07:56:28;;;;;;;11.77;6.65;;;18.70;39.20;;;;;;5095768;28;20046;-74
2022/04/30 07:58:54;;;;;;;13.38;5.10;;;18.90;39.10;;;;;;5095445;28;20027;-75
2022/04/30 08:01:20;;;;;;;8.18;5.00;;;19.00;38.70;;;;;;5095825;28;20036;-74
2022/04/30 08:03:45;;;;;;;9.32;6.25;;;19.10;38.00;;;;;;5095539;28;20024;-73
2022/04/30 08:06:11;;;;;;;7.65;4.97;;;19.30;38.20;;;;;;5095539;28;20048;-74
2022/04/30 08:08:37;;;;;;;12.07;5.95;;;19.50;38.10;;;;;;5091958;28;20432;-75
2022/04/30 08:11:03;;;;;;;10.45;6.15;;;19.70;37.10;;;;;;5075274;28;20031;-73
2022/04/30 08:13:29;;;;;;;9.10;5.85;;;19.80;37.20;;;;;;5074605;28;20030;-75
2022/04/30 08:15:55;;;;;;;12.13;6.50;;;20.00;37.10;;;;;;5075745;28;20029;-74
2022/04/30 08:18:20;;;;;;;12.25;5.82;;;20.10;36.90;;;;;;5074893;28;20081;-75
2022/04/30 08:20:46;;;;;;;6.88;4.35;;;20.30;36.30;;;;;;5075235;28;20024;-74
2022/04/30 08:23:12;;;;;;;9.52;4.32;;;20.40;35.10;;;;;;5076737;28;20074;-74
2022/04/30 08:25:39;;;;;;;5.38;4.13;;;20.60;34.90;;;;;;5082762;28;20036;-74
2022/04/30 08:28:06;;;;;;;5.07;4.05;;;20.70;34.40;;;;;;5076033;28;20482;-74
2022/04/30 08:30:32;;;;;;;6.70;4.25;;;20.90;34.40;;;;;;5076327;28;20059;-76
2022/04/30 08:32:58;;;;;;;5.15;4.18;;;21.10;34.70;;;;;;5076322;28;20493;-75
2022/04/30 08:35:25;;;;;;;13.35;5.43;;;21.20;33.80;;;;;;5074756;28;20021;-74
2022/04/30 08:37:51;;;;;;;10.00;5.32;;;21.50;33.40;;;;;;5086723;28;20582;-74
2022/04/30 08:40:17;;;;;;;7.93;5.60;;;21.60;32.80;;;;;;5095192;28;20027;-74
2022/04/30 08:42:44;;;;;;;9.52;5.25;;;21.90;33.10;;;;;;5095387;28;20028;-75
2022/04/30 08:45:10;;;;;;;8.23;5.63;;;22.10;32.70;;;;;;5081171;28;20086;-75
2022/04/30 08:47:40;;;;;;;12.02;5.13;;;22.30;32.60;;;;;;5073249;28;20074;-74
2022/04/30 08:50:11;;;;;;;7.15;5.10;;;22.50;32.20;;;;;;5074632;28;20020;-75
2022/04/30 08:52:38;;;;;;;8.10;4.75;;;22.70;31.90;;;;;;5074540;28;20021;-74
2022/04/30 08:55:05;;;;;;;8.02;4.50;;;22.90;31.60;;;;;;5074649;28;20094;-74
2022/04/30 08:57:31;;;;;;;4.80;3.90;;;23.00;31.00;;;;;;5074398;28;20024;-75
2022/04/30 08:59:58;;;;;;;8.30;4.28;;;23.20;30.70;;;;;;5072914;28;20466;-74
2022/04/30 09:02:25;;;;;;;8.20;4.82;;;23.30;29.70;;;;;;5074361;28;20031;-74
2022/04/30 09:04:51;;;;;;;10.18;5.18;;;23.40;29.90;;;;;;5074341;28;20044;-74
2022/04/30 09:07:21;;;;;;;7.55;4.65;;;23.50;29.50;;;;;;5074149;28;20039;-75
2022/04/30 09:09:58;;;;;;;12.50;5.22;;;23.60;29.40;;;;;;5074269;28;20024;-73
2022/04/30 09:12:26;;;;;;;7.50;4.63;;;23.80;29.30;;;;;;5074191;28;20024;-74
2022/04/30 09:14:52;;;;;;;8.30;4.72;;;23.90;29.20;;;;;;5074162;28;20020;-74
2022/04/30 09:17:22;;;;;;;7.35;4.30;;;24.00;29.40;;;;;;5089602;28;20055;-75
2022/04/30 09:20:04;;;;;;;6.43;4.70;;;24.10;28.80;;;;;;5092469;28;20031;-76
2022/04/30 09:22:38;;;;;;;6.63;4.72;;;24.20;28.80;;;;;;5094177;28;20028;-76
2022/04/30 09:25:07;;;;;;;11.10;6.05;;;24.40;29.00;;;;;;5094154;28;20017;-75
2022/04/30 09:27:33;;;;;;;8.65;5.18;;;24.50;28.60;;;;;;5093788;28;20032;-75
2022/04/30 09:29:59;;;;;;;9.73;4.82;;;24.60;28.50;;;;;;5092492;28;20031;-73
2022/04/30 09:32:26;;;;;;;10.60;4.53;;;24.60;28.40;;;;;;5093867;28;20032;-74
2022/04/30 09:37:48;;;;;;;12.85;5.50;;;24.70;28.40;;;;;;5093988;28;20066;-72
2022/04/30 09:40:14;;;;;;;9.43;5.38;;;24.80;27.60;;;;;;5093797;28;20074;-74
2022/04/30 09:42:46;;;;;;;14.48;5.50;;;24.70;27.70;;;;;;5093764;28;20036;-73
2022/04/30 09:45:24;;;;;;;8.90;5.20;;;24.70;27.60;;;;;;5079493;28;20029;-74
2022/04/30 09:47:51;;;;;;;5.97;4.90;;;24.60;27.50;;;;;;5073336;28;20028;-74
2022/04/30 09:55:54;;;;;;;10.33;5.83;;;24.60;29.20;;;;;;5073580;28;19919;-74
2022/04/30 09:58:25;;;;;;;9.73;4.85;;;24.60;27.50;;;;;;5071959;28;20432;-73
2022/04/30 10:01:01;;;;;;;8.02;4.80;;;24.50;27.70;;;;;;5071881;28;20061;-73
2022/04/30 10:03:29;;;;;;;9.27;5.13;;;24.40;27.90;;;;;;5071916;28;20031;-73
2022/04/30 10:06:04;;;;;;;8.27;4.97;;;24.40;27.40;;;;;;5073002;28;20419;-75
2022/04/30 10:08:35;;;;;;;7.85;4.68;;;24.30;27.70;;;;;;5071981;28;20028;-73
2022/04/30 10:11:09;;;;;;;6.70;4.53;;;24.30;28.00;;;;;;5073079;28;20063;-74
2022/04/30 10:13:55;;;;;;;8.93;4.65;;;24.30;28.40;;;;;;5073337;28;20024;-74
2022/04/30 10:16:28;;;;;;;6.30;4.07;;;24.30;28.20;;;;;;5073015;28;20103;-75
2022/04/30 10:18:59;;;;;;;8.60;4.20;;;24.30;28.10;;;;;;5073329;28;20016;-74
2022/04/30 10:21:25;;;;;;;6.53;4.28;;;24.30;27.90;;;;;;5072951;28;20032;-75
2022/04/30 10:24:01;;;;;;;9.68;4.32;;;24.30;27.80;;;;;;5072891;28;20553;-74
2022/04/30 10:26:26;;;;;;;6.65;4.22;;;24.20;27.90;;;;;;5072925;28;20423;-74
2022/04/30 10:29:00;;;;;;;8.13;4.57;;;24.30;28.20;;;;;;5071602;28;20020;-74
2022/04/30 10:31:26;;;;;;;6.03;4.22;;;24.20;27.90;;;;;;5072593;28;20052;-74
2022/04/30 10:33:51;;;;;;;8.93;4.30;;;24.10;27.80;;;;;;5072378;28;20438;-74
2022/04/30 10:36:19;;;;;;;7.38;4.25;;;24.10;27.60;;;;;;5072751;28;20024;-74
2022/04/30 10:39:04;;;;;;;16.88;5.32;;;24.00;27.60;;;;;;5072774;28;20493;-74
2022/04/30 10:41:44;;;;;;;6.75;4.03;;;23.90;27.60;;;;;;5072816;28;20031;-74
2022/04/30 10:44:12;;;;;;;5.80;3.55;;;23.80;27.50;;;;;;5073006;28;20028;-74
2022/04/30 10:46:42;;;;;;;5.70;3.58;;;23.80;28.00;;;;;;5072723;28;20027;-75
2022/04/30 10:49:08;;;;;;;4.22;3.15;;;23.80;27.70;;;;;;5072745;28;20021;-75
2022/04/30 10:51:44;;;;;;;9.63;4.88;;;23.80;28.20;;;;;;5072637;28;20043;-75
2022/04/30 10:54:16;;;;;;;7.57;4.38;;;23.70;27.90;;;;;;5071419;28;20031;-74
2022/04/30 10:56:43;;;;;;;8.73;4.35;;;23.80;27.40;;;;;;5072654;28;20024;-75
2022/04/30 10:59:09;;;;;;;7.28;4.97;;;23.80;27.80;;;;;;5072202;28;20076;-75
2022/04/30 11:01:35;;;;;;;5.22;3.78;;;23.80;27.50;;;;;;5072643;28;20470;-75
2022/04/30 11:04:01;;;;;;;5.43;3.95;;;23.80;27.50;;;;;;5071499;28;20028;-74
2022/04/30 11:06:32;;;;;;;5.28;3.63;;;23.80;27.40;;;;;;5072589;28;20024;-74
2022/04/30 11:09:05;;;;;;;5.88;3.10;;;23.80;26.80;;;;;;5073046;28;20036;-74
2022/04/30 11:11:32;;;;;;;6.70;3.78;;;23.80;27.10;;;;;;5071158;28;20017;-74
2022/04/30 11:14:06;;;;;;;9.98;4.15;;;23.90;27.40;;;;;;5072418;28;20028;-74
2022/04/30 11:16:33;;;;;;;;;;;23.90;26.80;;;;;;5082778;28;20110;-75
2022/04/30 11:19:09;;;;;;;15.02;3.10;;;23.90;27.50;;;;;;5092544;28;19926;-74
2022/04/30 11:21:40;;;;;;;4.07;2.38;;;23.90;26.00;;;;;;5092713;28;20035;-74
2022/04/30 11:24:07;;;;;;;7.20;3.08;;;23.90;26.40;;;;;;5092850;28;20055;-74
2022/04/30 11:26:41;;;;;;;5.38;2.42;;;23.90;26.30;;;;;;5092375;28;20028;-74
2022/04/30 11:29:11;;;;;;;4.93;2.97;;;24.00;26.60;;;;;;5092406;28;20362;-74
2022/04/30 11:31:37;;;;;;;6.53;2.70;;;23.90;26.00;;;;;;5091151;28;20031;-75
2022/04/30 11:34:15;;;;;;;5.18;2.63;;;23.90;26.20;;;;;;5092434;28;20017;-75
2022/04/30 11:36:59;;;;;;;3.95;2.63;;;24.00;25.90;;;;;;5092398;28;20023;-74
2022/04/30 11:39:26;;;;;;;9.43;3.28;;;23.90;26.10;;;;;;5091166;28;20035;-75
2022/04/30 11:41:54;;;;;;;6.55;3.28;;;23.90;25.70;;;;;;5092416;28;20056;-73
2022/04/30 11:44:22;;;;;;;7.30;3.30;;;24.00;26.00;;;;;;5088507;28;20047;-73
2022/04/30 11:46:51;;;;;;;4.65;3.40;;;24.00;26.50;;;;;;5075963;28;20028;-74
2022/04/30 11:49:19;;;;;;;6.65;3.15;;;23.90;26.20;;;;;;5075677;28;20020;-73
2022/04/30 11:51:46;;;;;;;6.03;3.60;;;24.00;26.50;;;;;;5075544;28;20017;-74
2022/04/30 11:54:20;;;;;;;4.65;3.10;;;24.00;26.40;;;;;;5075590;28;20411;-75
2022/04/30 11:56:47;;;;;;;6.03;3.13;;;24.00;26.70;;;;;;5075496;28;20539;-74
2022/04/30 11:59:13;;;;;;;5.15;3.10;;;24.00;26.50;;;;;;5074003;28;20081;-74
2022/04/30 12:01:40;;;;;;;5.95;3.03;;;24.10;26.10;;;;;;5075425;28;20107;-75
2022/04/30 12:04:14;;;;;;;3.85;3.03;;;24.10;26.20;;;;;;5075233;28;20024;-74
2022/04/30 12:06:45;;;;;;;10.15;2.80;;;24.10;26.10;;;;;;5074143;28;20032;-74
2022/04/30 12:09:18;;;;;;;2.75;1.92;;;24.10;26.30;;;;;;5075283;28;20019;-75
2022/04/30 12:11:51;;;;;;;3.17;2.40;;;24.10;25.80;;;;;;5073865;28;20382;-75
2022/04/30 12:14:18;;;;;;;4.18;2.38;;;24.20;25.90;;;;;;5075093;28;20045;-75
2022/04/30 12:16:47;;;;;;;4.15;2.58;;;24.20;25.70;;;;;;5074933;28;20031;-73
2022/04/30 12:25:16;;;;;;;4.63;2.58;;;24.30;25.30;;;;;;5075156;28;20547;-74
2022/04/30 12:27:52;;;;;;;5.38;2.35;;;24.30;25.30;;;;;;5075456;28;20021;-74
2022/04/30 12:30:20;;;;;;;7.65;2.78;;;24.30;25.60;;;;;;5073625;28;20036;-74
2022/04/30 12:32:54;;;;;;;3.10;2.20;;;24.30;24.80;;;;;;5074834;28;20013;-74
2022/04/30 12:35:34;;;;;;;;;;;24.30;24.80;;;;;;5074011;28;20082;-75
2022/04/30 12:38:09;;;;;;;2.50;2.10;;;24.30;25.70;;;;;;5075110;28;19912;-75
2022/04/30 12:40:37;;;;;;;3.95;2.30;;;24.20;24.80;;;;;;5074603;28;20025;-75
2022/04/30 12:43:04;;;;;;;4.45;2.53;;;24.20;24.90;;;;;;5074664;28;20021;-74
2022/04/30 12:45:34;;;;;;;3.38;2.28;;;24.10;25.00;;;;;;5074525;28;20020;-76
2022/04/30 12:48:01;;;;;;;4.00;2.60;;;24.10;25.30;;;;;;5074567;28;20028;-73
2022/04/30 12:50:27;;;;;;;3.95;2.60;;;24.10;25.70;;;;;;5074461;28;20386;-74
2022/04/30 12:52:53;;;;;;;4.47;2.15;;;24.00;25.50;;;;;;5073189;28;20021;-75
2022/04/30 12:55:20;;;;;;;5.18;2.50;;;24.00;24.90;;;;;;5073936;28;20017;-75
2022/04/30 12:57:46;;;;;;;3.08;2.28;;;24.00;24.80;;;;;;5073075;28;20078;-74
2022/04/30 13:00:15;;;;;;;2.92;1.90;;;24.10;24.90;;;;;;5074089;28;20048;-74
2022/04/30 13:02:45;;;;;;;4.53;2.22;;;24.10;25.00;;;;;;5073263;28;20389;-74
2022/04/30 13:05:12;;;;;;;8.73;1.92;;;24.20;24.70;;;;;;5072960;28;20029;-73
2022/04/30 13:07:42;;;;;;;4.88;2.22;;;24.20;24.80;;;;;;5074896;28;20024;-75
2022/04/30 13:15:40;;;;;;;2.42;1.80;;;24.40;24.70;;;;;;5094379;28;20035;-73
2022/04/30 13:18:07;;;;;;;2.75;1.95;;;24.60;24.30;;;;;;5094337;28;20024;-74
2022/04/30 13:20:37;;;;;;;2.58;1.52;;;24.60;24.40;;;;;;5094127;28;20031;-75
2022/04/30 13:23:03;;;;;;;3.97;2.10;;;24.80;24.00;;;;;;5092937;28;20032;-75
2022/04/30 13:25:29;;;;;;;3.13;2.00;;;24.80;23.60;;;;;;5094214;28;20035;-74
2022/04/30 13:27:56;;;;;;;3.35;1.85;;;24.90;23.20;;;;;;5092752;28;20020;-74
2022/04/30 13:30:25;;;;;;;6.68;1.88;;;24.90;23.60;;;;;;5090870;28;20024;-74